Time;durP1;ratioP1;P1;durP2;ratioP2;P2;SDS_P1;SDS_P2;PMS_P1;PMS_P2;Temp;Humidity;BMP_temperature;BMP_pressure;BME280_temperature;BME280_humidity;BME280_pressure;Samples;Min_cycle;Max_cycle;Signal;HPM_P1;HPM_P2
2023/03/18 00:01:44;;;;;;;0.55;0.30;;;;;;;16.42;48.95;96296.91;10390306;28;20075;-33
2023/03/18 00:06:44;;;;;;;0.60;0.52;;;;;;;16.42;48.68;96296.03;10385618;28;20634;-33
2023/03/18 00:11:45;;;;;;;0.87;0.40;;;;;;;16.41;48.56;96290.16;10394408;28;20124;-33
2023/03/18 00:16:46;;;;;;;0.80;0.32;;;;;;;16.40;48.44;96283.44;10386117;28;20115;-33
2023/03/18 00:21:46;;;;;;;0.57;0.40;;;;;;;16.39;48.15;96285.94;10389349;28;20048;-33
2023/03/18 00:26:47;;;;;;;0.30;0.28;;;;;;;16.37;48.13;96285.94;10390330;28;20046;-34
2023/03/18 00:31:48;;;;;;;1.30;0.28;;;;;;;16.38;47.87;96294.38;10389933;28;20113;-32
2023/03/18 00:36:55;;;;;;;0.35;0.35;;;;;;;16.39;49.47;96293.53;10389328;28;20322;-33
2023/03/18 00:42:00;;;;;;;0.63;0.40;;;;;;;16.58;52.81;96296.06;10384285;28;20041;-33
2023/03/18 00:47:01;;;;;;;1.05;0.60;;;;;;;16.63;53.71;96299.44;10392597;28;20161;-33
2023/03/18 00:52:01;;;;;;;0.37;0.37;;;;;;;16.62;51.55;96305.34;10383149;28;20455;-32
2023/03/18 00:57:02;;;;;;;0.40;0.40;;;;;;;16.51;50.70;96299.44;10385136;28;20296;-33
2023/03/18 01:02:02;;;;;;;0.80;0.40;;;;;;;16.46;49.89;96298.56;10386002;28;20030;-35
2023/03/18 01:07:03;;;;;;;0.63;0.43;;;;;;;16.42;49.83;96293.53;10387090;28;20500;-33
2023/03/18 01:12:03;;;;;;;0.80;0.30;;;;;;;16.39;49.50;96294.38;10385841;28;20424;-33
2023/03/18 01:17:05;;;;;;;0.57;0.20;;;;;;;16.39;49.45;96299.44;10385368;28;20029;-32
2023/03/18 01:22:06;;;;;;;0.13;0.13;;;;;;;16.34;48.54;96292.63;10386565;28;20037;-34
2023/03/18 01:27:13;;;;;;;0.85;0.40;;;;;;;16.37;48.80;96293.50;10385188;28;20428;-32
2023/03/18 01:32:15;;;;;;;0.52;0.32;;;;;;;16.32;48.56;96280.03;10383171;28;20044;-33
2023/03/18 01:37:16;;;;;;;0.75;0.40;;;;;;;16.33;48.39;96281.69;10389006;28;20505;-32
2023/03/18 01:42:21;;;;;;;0.60;0.35;;;;;;;16.33;48.58;96276.66;10385517;28;20406;-32
2023/03/18 01:47:22;;;;;;;0.47;0.32;;;;;;;16.35;48.34;96284.25;10402831;28;20044;-34
2023/03/18 01:52:29;;;;;;;0.43;0.30;;;;;;;16.35;48.07;96289.28;10393186;28;20037;-33
2023/03/18 01:57:32;;;;;;;0.40;0.30;;;;;;;16.35;49.13;96274.97;10385987;28;20038;-33
2023/03/18 02:02:32;;;;;;;0.50;0.30;;;;;;;16.55;53.16;96275.84;10402730;28;20040;-34
2023/03/18 02:07:35;;;;;;;1.17;0.90;;;;;;;16.57;53.72;96278.38;10393635;28;20025;-33
2023/03/18 02:12:38;;;;;;;0.73;0.50;;;;;;;16.56;51.87;96259.88;10403833;28;20029;-34
2023/03/18 02:17:46;;;;;;;1.13;0.50;;;;;;;16.47;50.17;96259.00;10398275;28;20515;-32
2023/03/18 02:22:51;;;;;;;0.32;0.30;;;;;;;16.42;49.79;96258.16;10387647;28;20055;-31
2023/03/18 02:27:58;;;;;;;0.85;0.50;;;;;;;16.38;49.39;96254.78;10398049;28;20041;-34
2023/03/18 02:33:00;;;;;;;0.63;0.38;;;;;;;16.37;49.40;96260.66;10396906;28;20042;-33
2023/03/18 02:38:02;;;;;;;0.60;0.40;;;;;;;16.35;49.02;96264.84;10396110;28;20496;-33
2023/03/18 02:43:30;;;;;;;0.40;0.40;;;;;;;16.35;48.89;96267.38;10389188;28;20091;-33
2023/03/18 02:48:37;;;;;;;0.30;0.30;;;;;;;16.33;48.90;96265.69;10384960;28;20033;-33
2023/03/18 02:53:38;;;;;;;0.22;0.20;;;;;;;16.33;48.38;96271.59;10382495;28;20498;-33
2023/03/18 02:58:40;;;;;;;0.43;0.30;;;;;;;16.31;48.38;96264.84;10374264;28;20087;-34
2023/03/18 03:03:42;;;;;;;0.40;0.30;;;;;;;16.26;47.93;96258.94;10398838;28;20036;-33
2023/03/18 03:08:44;;;;;;;0.30;0.30;;;;;;;16.29;48.39;96259.78;10383779;28;20056;-34
2023/03/18 03:13:45;;;;;;;0.30;0.20;;;;;;;16.31;48.23;96265.72;10396029;28;20039;-33
2023/03/18 03:18:47;;;;;;;0.20;0.20;;;;;;;16.34;50.56;96264.84;10389829;28;20405;-33
2023/03/18 03:23:47;;;;;;;1.00;0.47;;;;;;;16.49;53.50;96273.34;10397116;28;20030;-33
2023/03/18 03:28:48;;;;;;;0.50;0.40;;;;;;;16.52;53.62;96268.28;10403017;28;20413;-34
2023/03/18 03:33:48;;;;;;;0.20;0.20;;;;;;;16.52;51.22;96267.44;10384717;28;20528;-32
2023/03/18 03:38:49;;;;;;;0.37;0.20;;;;;;;16.42;50.36;96270.78;10392849;28;20408;-33
2023/03/18 03:43:49;;;;;;;0.63;0.40;;;;;;;16.37;49.49;96268.25;10395216;28;20516;-32
2023/03/18 03:48:50;;;;;;;0.40;0.20;;;;;;;16.35;48.96;96274.97;10391916;28;20038;-33
2023/03/18 03:53:50;;;;;;;1.48;0.40;;;;;;;16.33;49.29;96273.25;10404834;28;20292;-32
2023/03/18 03:58:51;;;;;;;0.40;0.30;;;;;;;16.30;48.81;96266.53;10390072;28;20489;-32
2023/03/18 04:03:52;;;;;;;0.17;0.17;;;;;;;16.30;49.14;96266.53;10391119;28;20517;-33
2023/03/18 04:08:52;;;;;;;0.50;0.30;;;;;;;16.29;48.65;96264.84;10392928;28;20041;-32
2023/03/18 04:13:53;;;;;;;0.55;0.32;;;;;;;16.29;48.39;96269.06;10388069;28;20057;-34
2023/03/18 04:18:54;;;;;;;0.50;0.30;;;;;;;16.28;48.23;96273.25;10390856;28;20030;-34
2023/03/18 04:23:57;;;;;;;0.95;0.40;;;;;;;16.27;48.30;96269.06;10388748;28;20037;-33
2023/03/18 04:28:57;;;;;;;0.73;0.60;;;;;;;16.27;47.99;96271.59;10393562;28;20040;-33
2023/03/18 04:33:58;;;;;;;0.52;0.40;;;;;;;16.25;47.88;96270.75;10398274;28;20286;-33
2023/03/18 04:38:59;;;;;;;0.50;0.30;;;;;;;16.27;48.67;96271.59;10392002;28;20034;-33
2023/03/18 04:44:00;;;;;;;0.82;0.40;;;;;;;16.42;53.25;96276.69;10393317;28;20057;-32
2023/03/18 04:49:10;;;;;;;0.82;0.45;;;;;;;16.48;53.33;96276.72;10379334;28;20029;-33
2023/03/18 04:54:12;;;;;;;0.50;0.40;;;;;;;16.45;50.89;96269.09;10384727;28;20025;-32
2023/03/18 04:59:12;;;;;;;0.52;0.40;;;;;;;16.38;50.14;96279.22;10389640;28;20028;-33
2023/03/18 05:04:13;;;;;;;0.40;0.40;;;;;;;16.33;49.15;96274.13;10388058;28;20025;-33
2023/03/18 05:09:20;;;;;;;0.30;0.30;;;;;;;16.31;48.60;96277.47;10384485;28;20266;-33
2023/03/18 05:14:21;;;;;;;0.20;0.20;;;;;;;16.29;48.45;96277.47;10389378;28;20517;-33
2023/03/18 05:19:24;;;;;;;0.40;0.30;;;;;;;16.27;48.22;96275.81;10387533;28;20390;-33
2023/03/18 05:24:35;;;;;;;0.25;0.25;;;;;;;16.22;48.34;96268.22;10394502;28;20025;-33
2023/03/18 05:29:39;;;;;;;0.40;0.30;;;;;;;16.24;47.88;96274.13;10403856;28;20056;-33
2023/03/18 05:34:45;;;;;;;0.38;0.28;;;;;;;16.23;48.08;96274.97;10406646;28;20063;-33
2023/03/18 05:39:46;;;;;;;0.17;0.17;;;;;;;16.22;47.55;96275.81;10392741;28;20039;-34
2023/03/18 05:44:50;;;;;;;0.25;0.22;;;;;;;16.22;47.44;96277.47;10412981;28;20025;-33
2023/03/18 05:49:56;;;;;;;0.28;0.22;;;;;;;16.21;47.55;96281.66;10397654;28;20045;-33
2023/03/18 05:54:59;;;;;;;0.17;0.17;;;;;;;16.20;47.33;96285.03;10388044;28;20029;-34
2023/03/18 06:00:05;;;;;;;0.20;0.10;;;;;;;16.18;48.53;96288.41;10394899;28;20037;-34
2023/03/18 06:05:19;;;;;;;0.65;0.30;;;;;;;16.40;52.59;96301.13;10395445;28;20383;-33
2023/03/18 06:10:22;;;;;;;0.55;0.30;;;;;;;16.42;53.48;96301.97;10401378;28;20029;-33
2023/03/18 06:15:24;;;;;;;0.20;0.20;;;;;;;16.43;49.62;96301.09;10384189;28;20034;-34
2023/03/18 06:20:25;;;;;;;0.20;0.20;;;;;;;16.34;49.50;96305.25;10390073;28;20124;-33
2023/03/18 06:25:25;;;;;;;0.30;0.22;;;;;;;16.29;48.37;96305.25;10390581;28;20125;-32
2023/03/18 06:30:26;;;;;;;0.45;0.30;;;;;;;16.27;48.52;96312.00;10385017;28;20589;-32
2023/03/18 06:35:27;;;;;;;0.20;0.20;;;;;;;16.25;48.56;96315.34;10386823;28;20029;-32
2023/03/18 06:40:28;;;;;;;0.25;0.25;;;;;;;16.23;48.02;96320.41;10382157;28;20022;-33
2023/03/18 06:45:29;;;;;;;0.32;0.20;;;;;;;16.22;48.23;96321.25;10403314;28;20075;-33
2023/03/18 06:50:38;;;;;;;0.52;0.30;;;;;;;16.21;48.01;96326.28;10410409;28;20521;-33
2023/03/18 06:55:40;;;;;;;0.45;0.45;;;;;;;16.22;47.93;96322.94;10390313;28;20071;-33
2023/03/18 07:00:44;;;;;;;0.20;0.20;;;;;;;16.19;48.08;96323.75;10386269;28;20106;-32
2023/03/18 07:05:49;;;;;;;0.30;0.30;;;;;;;16.19;47.49;96326.28;10397316;28;20500;-33
2023/03/18 07:10:52;;;;;;;0.52;0.20;;;;;;;16.14;47.89;96325.44;10389518;28;20041;-35
2023/03/18 07:15:55;;;;;;;0.47;0.30;;;;;;;16.19;47.63;96328.81;10388141;28;20037;-33
2023/03/18 07:20:57;;;;;;;0.25;0.20;;;;;;;16.19;47.79;96333.88;10397703;28;20030;-37
2023/03/18 07:26:02;;;;;;;0.43;0.30;;;;;;;16.37;52.09;96338.97;10398860;28;20531;-32
2023/03/18 07:31:02;;;;;;;0.52;0.40;;;;;;;16.41;53.44;96340.69;10399798;28;20030;-33
2023/03/18 07:36:03;;;;;;;0.50;0.25;;;;;;;16.43;50.37;96348.25;10391681;28;20042;-32
2023/03/18 07:41:03;;;;;;;1.10;0.50;;;;;;;16.33;49.57;96344.00;10400349;28;20029;-33
2023/03/18 07:46:04;;;;;;;0.38;0.20;;;;;;;16.29;48.19;96350.72;10394270;28;20367;-33
2023/03/18 07:51:04;;;;;;;0.38;0.30;;;;;;;16.25;49.00;96348.19;10388664;28;20129;-34
2023/03/18 07:56:06;;;;;;;0.70;0.25;;;;;;;16.22;48.83;96343.13;10387682;28;20045;-32
2023/03/18 08:01:08;;;;;;;0.30;0.20;;;;;;;16.22;48.54;96348.19;10389417;28;20059;-33
2023/03/18 08:06:09;;;;;;;0.20;0.17;;;;;;;16.21;48.11;96346.50;10393692;28;20033;-33
2023/03/18 08:11:09;;;;;;;0.20;0.20;;;;;;;16.21;48.45;96351.56;10392024;28;20029;-34
2023/03/18 08:16:11;;;;;;;0.20;0.20;;;;;;;16.14;48.48;96340.59;10391986;28;20034;-34
2023/03/18 08:21:11;;;;;;;0.40;0.40;;;;;;;16.18;48.44;96352.38;10387695;28;20426;-32
2023/03/18 08:26:12;;;;;;;0.10;0.10;;;;;;;16.18;47.98;96352.38;10386196;28;20052;-32
2023/03/18 08:31:13;;;;;;;0.50;0.38;;;;;;;16.18;48.37;96349.84;10386902;28;20038;-33
2023/03/18 08:36:14;;;;;;;0.32;0.25;;;;;;;16.17;48.23;96345.66;10381797;28;20033;-33
2023/03/18 08:41:15;;;;;;;0.60;0.30;;;;;;;16.18;48.37;96346.50;10388671;28;20033;-34
2023/03/18 08:46:17;;;;;;;0.70;0.30;;;;;;;16.32;51.04;96340.66;10386960;28;20037;-34
2023/03/18 08:51:17;;;;;;;0.75;0.30;;;;;;;16.38;53.51;96340.66;10387892;28;20090;-32
2023/03/18 08:56:18;;;;;;;0.20;0.20;;;;;;;16.43;51.14;96326.38;10380455;28;20419;-34
2023/03/18 09:01:21;;;;;;;0.30;0.30;;;;;;;16.32;50.04;96319.56;10387574;28;20037;-33
2023/03/18 09:06:22;;;;;;;1.80;0.20;;;;;;;16.26;49.07;96302.72;10390018;28;20453;-33
2023/03/18 09:11:23;;;;;;;0.20;0.20;;;;;;;16.24;49.04;96309.47;10382463;28;20088;-34
2023/03/18 09:16:23;;;;;;;0.30;0.20;;;;;;;16.18;48.87;96306.94;10388192;28;20029;-33
2023/03/18 09:21:24;;;;;;;0.10;0.10;;;;;;;16.20;48.84;96320.38;10383068;28;20025;-32
2023/03/18 09:26:24;;;;;;;0.33;0.30;;;;;;;16.21;49.16;96306.09;10383245;28;20493;-33
2023/03/18 09:31:25;;;;;;;0.20;0.20;;;;;;;16.19;48.66;96308.59;10388429;28;20045;-33
2023/03/18 09:36:27;;;;;;;0.65;0.20;;;;;;;16.17;48.95;96310.28;10380593;28;20296;-33
2023/03/18 09:41:51;;;;;;;0.32;0.30;;;;;;;16.17;48.77;96301.84;10387955;28;20033;-33
2023/03/18 09:47:10;;;;;;;0.47;0.30;;;;;;;16.17;48.81;96302.72;10371158;28;20049;-33
2023/03/18 09:52:25;;;;;;;0.50;0.30;;;;;;;16.16;48.69;96306.09;10379839;28;20038;-33
2023/03/18 09:57:30;;;;;;;0.15;0.15;;;;;;;16.16;48.56;96303.56;10378071;28;20117;-32
2023/03/18 10:02:34;;;;;;;0.28;0.28;;;;;;;16.16;48.36;96302.69;10397969;28;20067;-32
2023/03/18 10:07:40;;;;;;;0.22;0.20;;;;;;;16.21;49.83;96291.78;10390400;28;20078;-33
2023/03/18 10:12:49;;;;;;;0.33;0.20;;;;;;;16.40;52.50;96288.50;10389038;28;20116;-32
2023/03/18 10:18:04;;;;;;;0.75;0.45;;;;;;;16.42;51.47;96291.84;10399181;28;20065;-33
2023/03/18 10:23:21;;;;;;;0.17;0.17;;;;;;;16.33;50.60;96299.38;10383868;28;20038;-33
2023/03/18 10:28:40;;;;;;;0.10;0.10;;;;;;;16.25;48.89;96296.00;10383665;28;20048;-34
2023/03/18 10:33:57;;;;;;;0.47;0.20;;;;;;;16.23;48.75;96300.22;10401228;28;20053;-33
2023/03/18 10:38:59;;;;;;;0.20;0.20;;;;;;;16.20;48.90;96285.03;10384529;28;20049;-35
2023/03/18 10:44:21;;;;;;;0.63;0.30;;;;;;;16.19;48.95;96277.47;10396953;28;20153;-35
2023/03/18 10:49:27;;;;;;;0.20;0.20;;;;;;;16.16;49.11;96273.25;10386845;28;20069;-33
2023/03/18 10:54:39;;;;;;;0.30;0.20;;;;;;;16.16;49.25;96269.88;10393775;28;20390;-34
2023/03/18 10:59:43;;;;;;;0.20;0.20;;;;;;;16.14;48.74;96264.84;10398138;28;20068;-32
2023/03/18 11:04:48;;;;;;;0.20;0.20;;;;;;;16.14;49.01;96269.91;10385002;28;20053;-32
2023/03/18 11:09:48;;;;;;;0.30;0.30;;;;;;;16.13;48.80;96265.66;10395464;28;20049;-35
2023/03/18 11:14:49;;;;;;;0.30;0.20;;;;;;;16.14;48.38;96264.84;10390851;28;20403;-33
2023/03/18 11:20:06;;;;;;;0.32;0.32;;;;;;;16.14;48.61;96256.41;10394789;28;20490;-34
2023/03/18 11:25:25;;;;;;;0.32;0.32;;;;;;;16.14;48.75;96264.00;10402536;28;20032;-33
2023/03/18 11:30:34;;;;;;;0.20;0.20;;;;;;;16.30;50.62;96269.03;10391365;28;20045;-33
2023/03/18 11:35:39;;;;;;;0.30;0.20;;;;;;;16.34;52.99;96263.19;10376220;28;20456;-34
2023/03/18 11:40:40;;;;;;;0.20;0.15;;;;;;;16.41;50.43;96266.56;10397446;28;20034;-33
2023/03/18 11:45:45;;;;;;;0.40;0.35;;;;;;;16.29;49.68;96264.03;10399100;28;20121;-34
2023/03/18 11:51:02;;;;;;;0.10;0.10;;;;;;;16.14;48.78;96244.66;10389840;28;20033;-35
2023/03/18 11:56:30;;;;;;;0.32;0.25;;;;;;;16.19;48.95;96254.75;10382946;28;20125;-33
2023/03/18 12:01:49;;;;;;;1.20;0.30;;;;;;;16.17;48.77;96247.16;10389042;28;20038;-33
2023/03/18 12:07:07;;;;;;;0.30;0.30;;;;;;;16.15;49.29;96246.31;10384774;28;20121;-34
2023/03/18 12:12:20;;;;;;;0.45;0.20;;;;;;;16.14;48.93;96239.59;10390658;28;20048;-32
2023/03/18 12:17:49;;;;;;;0.20;0.20;;;;;;;16.13;48.89;96227.78;10395115;28;20552;-34
2023/03/18 12:23:00;;;;;;;0.15;0.15;;;;;;;16.14;48.71;96233.69;10384635;28;20021;-33
2023/03/18 12:28:15;;;;;;;0.55;0.20;;;;;;;16.13;48.47;96232.81;10394508;28;20041;-33
2023/03/18 12:33:41;;;;;;;0.10;0.10;;;;;;;16.12;48.76;96228.63;10385731;28;20049;-32
2023/03/18 12:39:10;;;;;;;0.52;0.20;;;;;;;16.11;48.57;96221.88;10391718;28;20077;-33
2023/03/18 12:44:20;;;;;;;0.32;0.30;;;;;;;16.10;48.27;96222.72;10382749;28;20038;-33
2023/03/18 12:49:37;;;;;;;0.10;0.10;;;;;;;16.16;49.48;96212.66;10384486;28;20494;-33
2023/03/18 12:54:54;;;;;;;1.10;0.17;;;;;;;16.35;50.71;96218.56;10384543;28;20520;-33
2023/03/18 13:00:05;;;;;;;0.30;0.25;;;;;;;16.41;51.02;96219.44;10388087;28;20033;-33
2023/03/18 13:05:19;;;;;;;0.50;0.30;;;;;;;16.31;51.16;96205.09;10386521;28;20054;-35
2023/03/18 13:10:22;;;;;;;0.10;0.10;;;;;;;16.23;48.73;96209.28;10381080;28;20034;-32
2023/03/18 13:15:37;;;;;;;0.20;0.20;;;;;;;16.19;48.50;96206.75;10385829;28;20042;-32
2023/03/18 13:20:39;;;;;;;0.10;0.10;;;;;;;16.15;49.03;96200.88;10390426;28;20113;-31
2023/03/18 13:26:01;;;;;;;0.20;0.20;;;;;;;16.14;48.74;96205.91;10389037;28;20090;-34
2023/03/18 13:31:30;;;;;;;0.20;0.20;;;;;;;16.13;48.98;96201.69;10389626;28;20069;-33
2023/03/18 13:37:21;;;;;;;0.30;0.30;;;;;;;16.12;48.68;96194.97;10392817;28;20079;-33
2023/03/18 13:42:38;;;;;;;0.70;0.10;;;;;;;16.10;48.97;96197.47;10379108;28;20425;-33
2023/03/18 13:47:39;;;;;;;;;;;;;;;16.11;48.59;96198.34;10398981;28;20034;-33
2023/03/18 13:52:44;;;;;;;0.50;0.20;;;;;;;16.10;48.86;96189.91;10390691;28;19925;-33
2023/03/18 13:57:56;;;;;;;0.20;0.10;;;;;;;16.05;48.49;96178.97;10388114;28;20125;-33
2023/03/18 14:03:04;;;;;;;0.20;0.20;;;;;;;16.08;48.86;96181.50;10400515;28;20037;-33
2023/03/18 14:08:37;;;;;;;0.15;0.15;;;;;;;16.08;48.36;96168.88;10390482;28;20042;-32
2023/03/18 14:13:37;;;;;;;0.30;0.30;;;;;;;16.24;50.13;96165.50;10385427;28;20040;-33
2023/03/18 14:18:38;;;;;;;0.13;0.13;;;;;;;16.37;50.50;96172.25;10395427;28;20029;-32
2023/03/18 14:23:43;;;;;;;0.10;0.10;;;;;;;16.39;50.20;96164.69;10401350;28;20691;-33
2023/03/18 14:28:54;;;;;;;0.10;0.10;;;;;;;16.27;49.89;96165.50;10395036;28;20079;-33
2023/03/18 14:34:01;;;;;;;0.20;0.20;;;;;;;16.21;49.02;96159.63;10390606;28;20091;-32
2023/03/18 14:39:02;;;;;;;0.30;0.10;;;;;;;16.16;48.53;96152.03;10387811;28;20498;-35
2023/03/18 14:44:21;;;;;;;0.20;0.10;;;;;;;16.14;48.85;96153.75;10392577;28;20029;-32
2023/03/18 14:49:28;;;;;;;0.50;0.30;;;;;;;16.13;48.99;96154.56;10389776;28;20077;-33
2023/03/18 14:54:34;;;;;;;0.30;0.20;;;;;;;16.11;49.20;96153.72;10390565;28;20083;-33
2023/03/18 14:59:35;;;;;;;0.30;0.20;;;;;;;16.11;49.00;96157.94;10390299;28;20069;-33
2023/03/18 15:04:35;;;;;;;0.20;0.20;;;;;;;16.10;48.70;96154.56;10392936;28;20033;-33
2023/03/18 15:09:37;;;;;;;0.27;0.13;;;;;;;16.10;48.61;96162.13;10395102;28;20021;-32
2023/03/18 15:14:40;;;;;;;0.15;0.10;;;;;;;16.10;48.48;96161.31;10397641;28;20049;-34
2023/03/18 15:19:41;;;;;;;0.22;0.22;;;;;;;16.09;48.45;96162.97;10387453;28;20476;-33
2023/03/18 15:24:42;;;;;;;0.10;0.10;;;;;;;16.09;48.79;96155.41;10393316;28;20113;-34
2023/03/18 15:30:04;;;;;;;0.10;0.10;;;;;;;16.08;48.68;96161.31;10392947;28;20033;-32
2023/03/18 15:35:25;;;;;;;0.17;0.10;;;;;;;16.21;49.97;96150.34;10388022;28;20164;-33
2023/03/18 15:40:35;;;;;;;0.10;0.10;;;;;;;16.36;50.66;96160.44;10385036;28;20481;-32
2023/03/18 15:45:43;;;;;;;0.13;0.13;;;;;;;16.37;50.21;96157.09;10392527;28;20171;-32
2023/03/18 15:50:57;;;;;;;0.90;0.20;;;;;;;16.25;50.21;96152.03;10386570;28;20120;-34
2023/03/18 15:56:06;;;;;;;0.00;0.00;;;;;;;16.19;48.62;96156.25;10383168;28;20454;-35
2023/03/18 16:01:15;;;;;;;0.10;0.10;;;;;;;16.15;48.49;96157.94;10395124;28;20061;-32
2023/03/18 16:06:16;;;;;;;0.20;0.20;;;;;;;16.11;48.93;96163.81;10389494;28;20045;-33
2023/03/18 16:11:17;;;;;;;0.20;0.20;;;;;;;16.08;49.01;96157.91;10397082;28;20425;-32
2023/03/18 16:16:28;;;;;;;0.20;0.20;;;;;;;16.06;48.77;96155.41;10391135;28;20056;-33
2023/03/18 16:21:28;;;;;;;0.10;0.10;;;;;;;16.08;48.60;96168.88;10388388;28;20413;-34
2023/03/18 16:26:28;;;;;;;0.10;0.10;;;;;;;16.08;48.47;96168.88;10389519;28;20034;-33
2023/03/18 16:31:31;;;;;;;0.87;0.30;;;;;;;16.07;48.71;96177.28;10388365;28;20046;-33
2023/03/18 16:36:34;;;;;;;0.20;0.10;;;;;;;16.06;48.20;96180.66;10384015;28;20062;-33
2023/03/18 16:41:34;;;;;;;0.05;0.05;;;;;;;16.06;47.82;96185.72;10389264;28;20124;-33
2023/03/18 16:46:36;;;;;;;0.10;0.10;;;;;;;16.07;48.32;96194.13;10393709;28;20559;-31
2023/03/18 16:51:36;;;;;;;0.20;0.10;;;;;;;16.05;48.28;96191.59;10386987;28;20124;-33
2023/03/18 16:56:36;;;;;;;0.20;0.20;;;;;;;16.15;49.68;96208.44;10380315;28;20033;-32
2023/03/18 17:01:37;;;;;;;0.20;0.20;;;;;;;16.32;50.80;96205.91;10383535;28;20030;-33
2023/03/18 17:06:37;;;;;;;0.28;0.20;;;;;;;16.36;50.38;96190.75;10386433;28;20298;-33
2023/03/18 17:11:39;;;;;;;0.10;0.10;;;;;;;16.21;50.13;96193.28;10389454;28;20168;-33
2023/03/18 17:16:39;;;;;;;0.17;0.10;;;;;;;16.18;48.71;96216.00;10400655;28;20049;-33
2023/03/18 17:21:40;;;;;;;0.10;0.10;;;;;;;16.07;48.62;96207.59;10390540;28;20040;-32
2023/03/18 17:26:41;;;;;;;0.20;0.20;;;;;;;16.10;48.58;96219.38;10394816;28;20039;-33
2023/03/18 17:31:42;;;;;;;0.00;0.00;;;;;;;16.08;48.90;96228.63;10399986;28;20038;-33
2023/03/18 17:36:43;;;;;;;0.10;0.10;;;;;;;16.06;48.91;96235.34;10390145;28;20393;-34
2023/03/18 17:41:43;;;;;;;0.20;0.20;;;;;;;16.06;48.87;96235.34;10399905;28;20022;-32
2023/03/18 17:46:43;;;;;;;0.27;0.10;;;;;;;16.05;48.42;96234.53;10397676;28;20087;-30
2023/03/18 17:51:47;;;;;;;0.50;0.30;;;;;;;16.02;48.19;96228.63;10390972;28;20295;-33
2023/03/18 17:56:47;;;;;;;0.20;0.10;;;;;;;16.04;48.09;96227.75;10387097;28;20053;-33
2023/03/18 18:01:49;;;;;;;0.20;0.20;;;;;;;16.03;48.50;96228.63;10400092;28;20589;-33
2023/03/18 18:06:50;;;;;;;0.20;0.13;;;;;;;16.03;48.02;96241.22;10394112;28;20562;-34
2023/03/18 18:11:50;;;;;;;0.13;0.10;;;;;;;16.03;48.27;96236.19;10389089;28;20091;-34
2023/03/18 18:16:53;;;;;;;0.20;0.20;;;;;;;16.04;48.39;96247.97;10395257;28;20448;-32
2023/03/18 18:21:53;;;;;;;0.20;0.20;;;;;;;16.18;50.53;96246.31;10392704;28;20034;-33
2023/03/18 18:26:54;;;;;;;0.45;0.32;;;;;;;16.34;53.02;96257.25;10393330;28;20037;-33
2023/03/18 18:31:56;;;;;;;0.40;0.30;;;;;;;16.31;50.93;96247.16;10395129;28;20075;-33
2023/03/18 18:36:57;;;;;;;0.25;0.25;;;;;;;16.18;49.56;96255.59;10393110;28;20048;-33
2023/03/18 18:41:57;;;;;;;0.10;0.10;;;;;;;16.12;48.47;96261.44;10392179;28;20037;-33
2023/03/18 18:46:58;;;;;;;0.47;0.30;;;;;;;16.09;48.73;96268.16;10397932;28;20510;-35
2023/03/18 18:52:00;;;;;;;0.03;0.03;;;;;;;16.06;48.33;96263.13;10383597;28;20490;-32
2023/03/18 18:57:00;;;;;;;0.43;0.22;;;;;;;16.04;48.56;96268.16;10384640;28;20038;-33
2023/03/18 19:02:02;;;;;;;0.27;0.20;;;;;;;16.04;48.53;96277.44;10397935;28;20038;-33
2023/03/18 19:07:05;;;;;;;0.10;0.10;;;;;;;16.03;48.24;96276.59;10401052;28;20298;-33
2023/03/18 19:12:13;;;;;;;0.20;0.20;;;;;;;16.03;47.89;96283.31;10388683;28;20034;-36
2023/03/18 19:17:17;;;;;;;0.20;0.20;;;;;;;16.03;48.30;96290.91;10393292;28;20116;-33
2023/03/18 19:22:24;;;;;;;0.20;0.20;;;;;;;16.00;48.32;96295.94;10388738;28;20030;-33
2023/03/18 19:27:29;;;;;;;;;;;;;;;16.01;47.87;96292.56;10384101;28;20494;-33
2023/03/18 19:32:29;;;;;;;0.30;0.30;;;;;;;15.99;47.80;96292.56;10394181;28;19917;-34
2023/03/18 19:37:31;;;;;;;0.20;0.20;;;;;;;15.98;47.98;96288.38;10387924;28;20045;-33
2023/03/18 19:42:32;;;;;;;0.13;0.13;;;;;;;16.05;49.35;96285.03;10390515;28;20113;-33
2023/03/18 19:47:33;;;;;;;0.15;0.13;;;;;;;16.26;52.28;96300.22;10393543;28;20030;-33
2023/03/18 19:52:33;;;;;;;0.20;0.20;;;;;;;16.30;51.24;96296.84;10391578;28;20034;-33
2023/03/18 19:57:33;;;;;;;0.23;0.20;;;;;;;16.21;51.34;96301.88;10382142;28;20490;-33
2023/03/18 20:02:34;;;;;;;0.10;0.10;;;;;;;16.10;48.97;96302.72;10395058;28;20088;-33
2023/03/18 20:07:35;;;;;;;0.20;0.20;;;;;;;16.09;48.54;96304.38;10396579;28;20695;-33
2023/03/18 20:12:39;;;;;;;0.20;0.13;;;;;;;16.05;48.26;96312.81;10392983;28;20041;-35
2023/03/18 20:17:41;;;;;;;0.20;0.20;;;;;;;16.03;48.41;96316.97;10390665;28;20497;-32
2023/03/18 20:23:03;;;;;;;0.40;0.30;;;;;;;16.03;48.62;96321.19;10385531;28;20470;-34
2023/03/18 20:28:05;;;;;;;0.35;0.20;;;;;;;16.02;48.34;96319.53;10399136;28;20045;-33
2023/03/18 20:33:06;;;;;;;0.38;0.15;;;;;;;16.00;48.19;96328.75;10392510;28;20501;-33
2023/03/18 20:38:21;;;;;;;0.20;0.20;;;;;;;16.00;48.41;96334.66;10383920;28;20061;-33
2023/03/18 20:43:26;;;;;;;0.17;0.17;;;;;;;16.00;48.45;96347.28;10389945;28;20434;-31
2023/03/18 20:48:27;;;;;;;0.65;0.25;;;;;;;16.00;48.34;96348.94;10391759;28;20345;-33
2023/03/18 20:53:27;;;;;;;0.25;0.20;;;;;;;15.99;48.11;96349.78;10387265;28;20520;-33
2023/03/18 20:58:28;;;;;;;0.27;0.20;;;;;;;15.99;47.93;96357.34;10384002;28;20449;-34
2023/03/18 21:03:30;;;;;;;0.20;0.20;;;;;;;15.97;47.69;96347.28;10393363;28;20061;-35
2023/03/18 21:08:32;;;;;;;0.30;0.20;;;;;;;16.17;50.08;96360.81;10384109;28;20386;-33
2023/03/18 21:13:37;;;;;;;0.55;0.30;;;;;;;16.26;52.84;96360.81;10391485;28;20054;-34
2023/03/18 21:18:40;;;;;;;0.30;0.30;;;;;;;16.26;49.99;96360.81;10394107;28;20052;-32
2023/03/18 21:23:40;;;;;;;0.20;0.20;;;;;;;16.14;49.26;96348.19;10391459;28;20411;-33
2023/03/18 21:28:40;;;;;;;0.40;0.30;;;;;;;16.00;48.50;96339.69;10387258;28;20029;-33
2023/03/18 21:33:42;;;;;;;0.20;0.20;;;;;;;16.03;48.53;96349.81;10390661;28;20300;-34
2023/03/18 21:38:43;;;;;;;0.32;0.20;;;;;;;16.01;48.05;96360.72;10389326;28;20041;-33
2023/03/18 21:43:43;;;;;;;0.30;0.20;;;;;;;16.00;48.12;96362.44;10390014;28;20034;-32
2023/03/18 21:48:46;;;;;;;0.27;0.27;;;;;;;15.99;48.43;96363.25;10390422;28;20109;-33
2023/03/18 21:53:47;;;;;;;0.15;0.15;;;;;;;15.95;48.07;96356.50;10382308;28;20861;-32
2023/03/18 21:58:47;;;;;;;0.30;0.22;;;;;;;15.98;48.09;96358.19;10387381;28;20033;-34
2023/03/18 22:03:52;;;;;;;0.23;0.10;;;;;;;15.96;47.72;96354.84;10400828;28;20026;-32
2023/03/18 22:08:52;;;;;;;0.20;0.20;;;;;;;15.96;47.69;96350.59;10396312;28;20048;-33
2023/03/18 22:13:53;;;;;;;0.10;0.10;;;;;;;15.96;48.06;96344.72;10390185;28;20056;-32
2023/03/18 22:18:53;;;;;;;0.40;0.40;;;;;;;15.96;47.72;96339.69;10402640;28;20334;-34
2023/03/18 22:23:56;;;;;;;0.27;0.20;;;;;;;15.93;47.82;96345.56;10399119;28;20576;-32
2023/03/18 22:28:57;;;;;;;0.40;0.22;;;;;;;15.98;49.32;96348.97;10396721;28;20501;-34
2023/03/18 22:33:57;;;;;;;0.37;0.30;;;;;;;16.17;50.81;96354.88;10387368;28;20046;-33
2023/03/18 22:38:57;;;;;;;0.27;0.20;;;;;;;16.23;52.84;96350.72;10389252;28;20072;-33
2023/03/18 22:43:58;;;;;;;0.20;0.20;;;;;;;16.21;50.75;96354.91;10395663;28;20034;-33
2023/03/18 22:49:05;;;;;;;0.20;0.20;;;;;;;16.10;48.89;96363.31;10398839;28;20052;-34
2023/03/18 22:54:06;;;;;;;0.30;0.20;;;;;;;16.06;48.55;96372.56;10393396;28;20091;-33
2023/03/18 22:59:10;;;;;;;0.28;0.20;;;;;;;16.03;48.49;96377.56;10388541;28;20571;-33
2023/03/18 23:04:11;;;;;;;0.40;0.20;;;;;;;15.95;48.47;96374.16;10397254;28;20121;-33
2023/03/18 23:09:11;;;;;;;0.28;0.22;;;;;;;15.98;48.13;96379.25;10387890;28;20112;-31
2023/03/18 23:14:12;;;;;;;0.20;0.20;;;;;;;15.96;48.48;96373.34;10388194;28;20037;-33
2023/03/18 23:19:12;;;;;;;0.20;0.20;;;;;;;15.97;48.07;96386.81;10386141;28;20037;-33
2023/03/18 23:24:12;;;;;;;0.20;0.20;;;;;;;15.95;47.77;96394.38;10394525;28;20029;-32
2023/03/18 23:29:13;;;;;;;0.20;0.20;;;;;;;15.96;48.23;96395.22;10387399;28;20482;-33
2023/03/18 23:34:13;;;;;;;0.33;0.27;;;;;;;15.89;48.18;96384.25;10391803;28;20498;-33
2023/03/18 23:39:13;;;;;;;0.17;0.17;;;;;;;15.93;47.74;96388.47;10392927;28;20045;-33